createdAt,value
2019-01-24T00:00:12.523Z,1004.72
2019-01-24T00:01:12.750Z,1004.82
2019-01-24T00:02:12.421Z,1004.78
2019-01-24T00:03:12.367Z,1004.73
2019-01-24T00:04:16.735Z,1004.73
2019-01-24T00:05:12.263Z,1004.81
2019-01-24T00:06:12.211Z,1004.77
2019-01-24T00:07:12.159Z,1004.79
2019-01-24T00:08:12.109Z,1004.79
2019-01-24T00:09:12.055Z,1004.79
2019-01-24T00:10:12.004Z,1004.80
2019-01-24T00:11:11.952Z,1004.83
2019-01-24T00:12:11.901Z,1004.88
2019-01-24T00:13:11.848Z,1004.92
2019-01-24T00:14:11.838Z,1004.92
2019-01-24T00:15:11.743Z,1004.88
2019-01-24T00:16:11.709Z,1004.86
2019-01-24T00:17:11.640Z,1004.90
2019-01-24T00:18:11.641Z,1004.92
2019-01-24T00:19:11.589Z,1004.89
2019-01-24T00:20:11.496Z,1004.87
2019-01-24T00:21:11.433Z,1004.88
2019-01-24T00:22:11.381Z,1004.93
2019-01-24T00:23:11.329Z,1004.95
2019-01-24T00:24:11.280Z,1004.98
2019-01-24T00:25:11.225Z,1004.96
2019-01-24T00:26:11.174Z,1004.94
2019-01-24T00:27:11.123Z,1004.92
2019-01-24T00:28:11.070Z,1004.99
2019-01-24T00:29:11.016Z,1004.97
2019-01-24T00:30:10.966Z,1004.96
2019-01-24T00:31:10.914Z,1004.93
2019-01-24T00:32:10.863Z,1004.93
2019-01-24T00:33:10.810Z,1004.93
2019-01-24T00:34:10.759Z,1004.90
2019-01-24T00:35:10.707Z,1004.94
2019-01-24T00:36:10.655Z,1004.92
2019-01-24T00:37:10.602Z,1004.93
2019-01-24T00:38:10.650Z,1004.97
2019-01-24T00:39:10.501Z,1004.97
2019-01-24T00:40:10.447Z,1005.00
2019-01-24T00:41:10.395Z,1004.98
2019-01-24T00:42:10.343Z,1005.00
2019-01-24T00:43:10.291Z,1005.02
2019-01-24T00:44:10.240Z,1005.00
2019-01-24T00:45:10.186Z,1005.03
2019-01-24T00:46:10.135Z,1005.02
2019-01-24T00:47:10.084Z,1005.07
2019-01-24T00:48:10.032Z,1005.16
2019-01-24T00:49:09.980Z,1005.14
2019-01-24T00:50:09.928Z,1005.14
2019-01-24T00:51:09.876Z,1005.14
2019-01-24T00:52:09.824Z,1005.14
2019-01-24T00:53:09.772Z,1005.19
2019-01-24T00:54:09.720Z,1005.25
2019-01-24T00:55:09.669Z,1005.09
2019-01-24T00:56:09.617Z,1005.09
2019-01-24T00:57:09.563Z,1005.12
2019-01-24T00:58:09.511Z,1005.18
2019-01-24T00:59:09.461Z,1005.12
2019-01-24T01:00:09.410Z,1005.08
2019-01-24T01:01:09.357Z,1005.10
2019-01-24T01:02:09.306Z,1005.07
2019-01-24T01:03:09.253Z,1005.11
2019-01-24T01:04:09.202Z,1005.14
2019-01-24T01:05:09.150Z,1005.23
2019-01-24T01:06:09.097Z,1005.18
2019-01-24T01:07:09.049Z,1005.14
2019-01-24T01:08:08.994Z,1005.25
2019-01-24T01:09:08.944Z,1005.21
2019-01-24T01:10:08.888Z,1005.24
2019-01-24T01:11:08.839Z,1005.27
2019-01-24T01:12:08.787Z,1005.32
2019-01-24T01:13:08.734Z,1005.29
2019-01-24T01:14:08.683Z,1005.31
2019-01-24T01:15:08.631Z,1005.36
2019-01-24T01:16:08.629Z,1005.34
2019-01-24T01:17:08.526Z,1005.32
2019-01-24T01:18:08.475Z,1005.33
2019-01-24T01:19:08.423Z,1005.34
2019-01-24T01:20:08.371Z,1005.34
2019-01-24T01:21:08.319Z,1005.38
2019-01-24T01:22:08.267Z,1005.35
2019-01-24T01:23:08.215Z,1005.43
2019-01-24T01:24:08.164Z,1005.34
2019-01-24T01:25:08.111Z,1005.35
2019-01-24T01:26:08.061Z,1005.35
2019-01-24T01:27:08.007Z,1005.37
2019-01-24T01:28:07.956Z,1005.36
2019-01-24T01:29:07.903Z,1005.36
2019-01-24T01:30:07.851Z,1005.35
2019-01-24T01:31:07.799Z,1005.38
2019-01-24T01:32:07.750Z,1005.38
2019-01-24T01:33:07.695Z,1005.38
2019-01-24T01:34:07.644Z,1005.41
2019-01-24T01:35:07.642Z,1005.39
2019-01-24T01:36:07.590Z,1005.37
2019-01-24T01:37:07.488Z,1005.36
2019-01-24T01:38:07.435Z,1005.42
2019-01-24T01:39:07.385Z,1005.43
2019-01-24T01:40:07.333Z,1005.49
2019-01-24T01:41:07.280Z,1005.48
2019-01-24T01:42:07.230Z,1005.48
2019-01-24T01:43:07.177Z,1005.50
2019-01-24T01:44:07.127Z,1005.49
2019-01-24T01:45:07.073Z,1005.50
2019-01-24T01:46:07.021Z,1005.56
2019-01-24T01:47:06.969Z,1005.54
2019-01-24T01:48:06.919Z,1005.55
2019-01-24T01:49:06.865Z,1005.49
2019-01-24T01:50:06.814Z,1005.52
2019-01-24T01:51:06.762Z,1005.51
2019-01-24T01:52:06.710Z,1005.47
2019-01-24T01:53:06.657Z,1005.47
2019-01-24T01:54:06.607Z,1005.46
2019-01-24T01:55:06.605Z,1005.48
2019-01-24T01:56:06.503Z,1005.42
2019-01-24T01:57:06.450Z,1005.46
2019-01-24T01:58:06.398Z,1005.45
2019-01-24T01:59:06.347Z,1005.49
2019-01-24T02:00:06.295Z,1005.51
2019-01-24T02:01:06.243Z,1005.50
2019-01-24T02:02:06.192Z,1005.45
2019-01-24T02:03:06.139Z,1005.51
2019-01-24T02:04:06.088Z,1005.51
2019-01-24T02:05:06.035Z,1005.45
2019-01-24T02:06:05.984Z,1005.48
2019-01-24T02:07:05.932Z,1005.52
2019-01-24T02:08:05.881Z,1005.49
2019-01-24T02:09:05.828Z,1005.47
2019-01-24T02:10:05.776Z,1005.46
2019-01-24T02:11:05.725Z,1005.46
2019-01-24T02:12:05.674Z,1005.46
2019-01-24T02:13:05.623Z,1005.51
2019-01-24T02:14:05.618Z,1005.55
2019-01-24T02:15:05.517Z,1005.52
2019-01-24T02:16:05.468Z,1005.49
2019-01-24T02:17:05.416Z,1005.50
2019-01-24T02:18:05.364Z,1005.49
2019-01-24T02:19:05.309Z,1005.51
2019-01-24T02:20:05.259Z,1005.50
2019-01-24T02:21:05.205Z,1005.48
2019-01-24T02:22:05.155Z,1005.49
2019-01-24T02:23:05.105Z,1005.49
2019-01-24T02:24:05.053Z,1005.49
2019-01-24T02:25:04.999Z,1005.49
2019-01-24T02:26:04.946Z,1005.54
2019-01-24T02:27:04.895Z,1005.52
2019-01-24T02:28:04.844Z,1005.47
2019-01-24T02:29:04.791Z,1005.47
2019-01-24T02:30:04.742Z,1005.47
2019-01-24T02:31:04.689Z,1005.49
2019-01-24T02:32:04.637Z,1005.53
2019-01-24T02:33:04.586Z,1005.43
2019-01-24T02:34:04.583Z,1005.42
2019-01-24T02:35:04.481Z,1005.45
2019-01-24T02:36:04.429Z,1005.47
2019-01-24T02:37:04.382Z,1005.48
2019-01-24T02:38:04.325Z,1005.42
2019-01-24T02:39:04.274Z,1005.47
2019-01-24T02:40:04.232Z,1005.49
2019-01-24T02:41:04.170Z,1005.50
2019-01-24T02:42:04.118Z,1005.54
2019-01-24T02:43:04.067Z,1005.52
2019-01-24T02:44:04.014Z,1005.53
2019-01-24T02:45:03.966Z,1005.54
2019-01-24T02:46:03.911Z,1005.56
2019-01-24T02:47:03.859Z,1005.60
2019-01-24T02:48:03.808Z,1005.64
2019-01-24T02:49:03.756Z,1005.60
2019-01-24T02:50:03.704Z,1005.60
2019-01-24T02:51:03.652Z,1005.61
2019-01-24T02:52:03.651Z,1005.61
2019-01-24T02:53:03.649Z,1005.61
2019-01-24T02:54:03.497Z,1005.62
2019-01-24T02:55:03.446Z,1005.64
2019-01-24T02:56:03.393Z,1005.59
2019-01-24T02:57:03.342Z,1005.62
2019-01-24T02:58:03.290Z,1005.61
2019-01-24T02:59:03.238Z,1005.57
2019-01-24T03:00:03.186Z,1005.65
2019-01-24T03:01:03.134Z,1005.66
2019-01-24T03:02:03.089Z,1005.63
2019-01-24T03:03:03.030Z,1005.65
2019-01-24T03:04:02.979Z,1005.61
2019-01-24T03:05:02.927Z,1005.61
2019-01-24T03:06:02.880Z,1005.60
2019-01-24T03:07:02.823Z,1005.61
2019-01-24T03:08:02.773Z,1005.60
2019-01-24T03:09:02.719Z,1005.58
2019-01-24T03:10:02.668Z,1005.61
2019-01-24T03:11:02.618Z,1005.60
2019-01-24T03:12:02.569Z,1005.58
2019-01-24T03:13:02.562Z,1005.61
2019-01-24T03:14:02.461Z,1005.59
2019-01-24T03:15:02.412Z,1005.54
2019-01-24T03:16:02.358Z,1005.61
2019-01-24T03:17:02.306Z,1005.54
2019-01-24T03:18:02.253Z,1005.54
2019-01-24T03:19:02.201Z,1005.55
2019-01-24T03:20:02.151Z,1005.53
2019-01-24T03:21:02.097Z,1005.53
2019-01-24T03:22:02.046Z,1005.56
2019-01-24T03:23:01.995Z,1005.52
2019-01-24T03:24:01.943Z,1005.56
2019-01-24T03:25:01.911Z,1005.54
2019-01-24T03:26:01.839Z,1005.53
2019-01-24T03:27:01.786Z,1005.54
2019-01-24T03:28:01.749Z,1005.55
2019-01-24T03:29:01.692Z,1005.57
2019-01-24T03:30:01.639Z,1005.56
2019-01-24T03:31:01.581Z,1005.56
2019-01-24T03:32:01.531Z,1005.56
2019-01-24T03:33:01.477Z,1005.61
2019-01-24T03:34:01.424Z,1005.63
2019-01-24T03:35:04.283Z,1005.64
2019-01-24T03:36:01.324Z,1005.58
2019-01-24T03:37:01.269Z,1005.65
2019-01-24T03:38:01.217Z,1005.67
2019-01-24T03:39:01.166Z,1005.72
2019-01-24T03:40:01.114Z,1005.64
2019-01-24T03:41:01.061Z,1005.68
2019-01-24T03:42:01.015Z,1005.67
2019-01-24T03:43:00.958Z,1005.69
2019-01-24T03:44:00.910Z,1005.72
2019-01-24T03:45:00.868Z,1005.71
2019-01-24T03:46:00.807Z,1005.71
2019-01-24T03:47:00.781Z,1005.73
2019-01-24T03:48:00.704Z,1005.69
2019-01-24T03:49:00.649Z,1005.70
2019-01-24T03:50:00.596Z,1005.69
2019-01-24T03:51:00.594Z,1005.71
2019-01-24T03:52:00.492Z,1005.73
2019-01-24T03:53:00.440Z,1005.78
2019-01-24T03:54:00.388Z,1005.77
2019-01-24T03:55:00.336Z,1005.81
2019-01-24T03:56:00.288Z,1005.78
2019-01-24T03:57:00.233Z,1005.78
2019-01-24T03:58:00.181Z,1005.82
2019-01-24T03:59:00.128Z,1005.80
2019-01-24T04:00:00.170Z,1005.81
2019-01-24T04:01:00.025Z,1005.82
2019-01-24T04:01:59.973Z,1005.83
2019-01-24T04:02:59.923Z,1005.84
2019-01-24T04:03:59.871Z,1005.88
2019-01-24T04:04:59.818Z,1005.83
2019-01-24T04:05:59.767Z,1005.82
2019-01-24T04:06:59.715Z,1005.82
2019-01-24T04:07:59.663Z,1005.86
2019-01-24T04:08:59.610Z,1005.86
2019-01-24T04:09:59.559Z,1005.88
2019-01-24T04:10:59.508Z,1005.87
2019-01-24T04:11:59.456Z,1005.91
2019-01-24T04:12:59.404Z,1005.84
2019-01-24T04:13:59.353Z,1005.87
2019-01-24T04:14:59.301Z,1005.90
2019-01-24T04:15:59.250Z,1005.85
2019-01-24T04:16:59.197Z,1005.88
2019-01-24T04:17:59.146Z,1005.89
2019-01-24T04:18:59.093Z,1005.87
2019-01-24T04:19:59.042Z,1005.95
2019-01-24T04:20:58.991Z,1005.93
2019-01-24T04:21:58.938Z,1005.90
2019-01-24T04:22:58.886Z,1005.91
2019-01-24T04:23:58.834Z,1005.91
2019-01-24T04:24:58.781Z,1005.96
2019-01-24T04:25:58.731Z,1005.93
2019-01-24T04:26:58.680Z,1005.89
2019-01-24T04:27:58.627Z,1005.90
2019-01-24T04:28:58.678Z,1005.93
2019-01-24T04:29:58.523Z,1005.91
2019-01-24T04:30:58.473Z,1005.93
2019-01-24T04:31:58.422Z,1005.96
2019-01-24T04:32:58.375Z,1006.01
2019-01-24T04:33:58.316Z,1005.97
2019-01-24T04:34:58.265Z,1005.93
2019-01-24T04:35:58.212Z,1005.96
2019-01-24T04:36:58.160Z,1005.93
2019-01-24T04:37:58.109Z,1005.89
2019-01-24T04:38:58.058Z,1005.89
2019-01-24T04:39:58.006Z,1005.88
2019-01-24T04:40:57.953Z,1005.93
2019-01-24T04:41:57.901Z,1005.94
2019-01-24T04:42:57.851Z,1005.91
2019-01-24T04:43:57.801Z,1005.90
2019-01-24T04:44:57.746Z,1005.91
2019-01-24T04:45:57.694Z,1005.94
2019-01-24T04:46:57.646Z,1005.90
2019-01-24T04:47:57.593Z,1005.93
2019-01-24T04:48:57.540Z,1005.96
2019-01-24T04:49:57.487Z,1006.02
2019-01-24T04:50:57.435Z,1006.03
2019-01-24T04:51:57.385Z,1006.00
2019-01-24T04:52:57.333Z,1006.05
2019-01-24T04:53:57.280Z,1006.05
2019-01-24T04:54:57.230Z,1006.03
2019-01-24T04:55:57.177Z,1005.99
2019-01-24T04:56:57.124Z,1006.05
2019-01-24T04:57:57.072Z,1006.10
2019-01-24T04:58:57.022Z,1006.12
2019-01-24T04:59:56.973Z,1006.12
2019-01-24T05:00:56.917Z,1006.11
2019-01-24T05:01:57.183Z,1006.12
2019-01-24T05:02:56.843Z,1006.16
2019-01-24T05:03:56.763Z,1006.23
2019-01-24T05:04:56.711Z,1006.17
2019-01-24T05:05:56.660Z,1006.22
2019-01-24T05:06:56.607Z,1006.20
2019-01-24T05:07:56.613Z,1006.22
2019-01-24T05:08:56.503Z,1006.19
2019-01-24T05:09:56.455Z,1006.26
2019-01-24T05:10:56.403Z,1006.25
2019-01-24T05:11:56.348Z,1006.29
2019-01-24T05:12:56.299Z,1006.28
2019-01-24T05:13:56.244Z,1006.24
2019-01-24T05:14:56.193Z,1006.25
2019-01-24T05:15:56.142Z,1006.33
2019-01-24T05:16:56.089Z,1006.31
2019-01-24T05:17:56.038Z,1006.38
2019-01-24T05:18:55.988Z,1006.32
2019-01-24T05:19:55.934Z,1006.28
2019-01-24T05:20:55.882Z,1006.29
2019-01-24T05:21:55.831Z,1006.32
2019-01-24T05:22:55.779Z,1006.34
2019-01-24T05:23:55.727Z,1006.35
2019-01-24T05:24:55.675Z,1006.30
2019-01-24T05:25:55.623Z,1006.35
2019-01-24T05:26:55.623Z,1006.29
2019-01-24T05:27:55.520Z,1006.33
2019-01-24T05:28:55.469Z,1006.35
2019-01-24T05:29:55.416Z,1006.31
2019-01-24T05:30:55.366Z,1006.39
2019-01-24T05:31:55.313Z,1006.32
2019-01-24T05:32:55.487Z,1006.37
2019-01-24T05:33:55.208Z,1006.35
2019-01-24T05:34:55.158Z,1006.34
2019-01-24T05:35:55.105Z,1006.36
2019-01-24T05:36:55.053Z,1006.36
2019-01-24T05:37:55.002Z,1006.37
2019-01-24T05:38:54.949Z,1006.41
2019-01-24T05:39:54.897Z,1006.38
2019-01-24T05:40:54.846Z,1006.39
2019-01-24T05:41:54.794Z,1006.41
2019-01-24T05:42:54.745Z,1006.43
2019-01-24T05:43:54.692Z,1006.40
2019-01-24T05:44:54.639Z,1006.45
2019-01-24T05:45:54.586Z,1006.43
2019-01-24T05:46:54.536Z,1006.45
2019-01-24T05:47:54.484Z,1006.43
2019-01-24T05:48:54.432Z,1006.42
2019-01-24T05:49:54.380Z,1006.44
2019-01-24T05:50:54.329Z,1006.48
2019-01-24T05:51:54.286Z,1006.51
2019-01-24T05:52:54.224Z,1006.52
2019-01-24T05:53:54.173Z,1006.51
2019-01-24T05:54:54.125Z,1006.53
2019-01-24T05:55:54.073Z,1006.55
2019-01-24T05:56:54.018Z,1006.53
2019-01-24T05:57:53.965Z,1006.54
2019-01-24T05:58:53.915Z,1006.51
2019-01-24T05:59:53.864Z,1006.55
2019-01-24T06:00:53.810Z,1006.56
2019-01-24T06:01:53.764Z,1006.53
2019-01-24T06:02:53.712Z,1006.60
2019-01-24T06:03:53.656Z,1006.55
2019-01-24T06:04:53.655Z,1006.58
2019-01-24T06:05:53.602Z,1006.60
2019-01-24T06:06:53.506Z,1006.67
2019-01-24T06:07:53.448Z,1006.66
2019-01-24T06:08:53.713Z,1006.65
2019-01-24T06:09:53.345Z,1006.67
2019-01-24T06:10:53.293Z,1006.65
2019-01-24T06:11:53.242Z,1006.65
2019-01-24T06:12:53.189Z,1006.69
2019-01-24T06:13:53.139Z,1006.69
2019-01-24T06:14:53.086Z,1006.69
2019-01-24T06:15:53.033Z,1006.70
2019-01-24T06:16:52.982Z,1006.62
2019-01-24T06:17:52.930Z,1006.73
2019-01-24T06:18:52.879Z,1006.71
2019-01-24T06:19:52.828Z,1006.70
2019-01-24T06:20:52.776Z,1006.68
2019-01-24T06:21:52.724Z,1006.68
2019-01-24T06:22:52.672Z,1006.76
2019-01-24T06:23:52.620Z,1006.74
2019-01-24T06:24:52.568Z,1006.73
2019-01-24T06:25:52.565Z,1006.76
2019-01-24T06:26:52.464Z,1006.74
2019-01-24T06:27:52.413Z,1006.82
2019-01-24T06:28:52.360Z,1006.83
2019-01-24T06:29:52.309Z,1006.82
2019-01-24T06:30:52.257Z,1006.87
2019-01-24T06:31:52.206Z,1006.85
2019-01-24T06:32:52.154Z,1006.88
2019-01-24T06:33:52.102Z,1006.87
2019-01-24T06:34:52.050Z,1006.89
2019-01-24T06:35:52.000Z,1006.90
2019-01-24T06:36:51.946Z,1006.89
2019-01-24T06:37:51.896Z,1006.92
2019-01-24T06:38:51.843Z,1006.93
2019-01-24T06:39:51.790Z,1006.95
2019-01-24T06:40:51.739Z,1006.94
2019-01-24T06:41:51.689Z,1006.92
2019-01-24T06:42:51.640Z,1006.92
2019-01-24T06:43:51.684Z,1006.95
2019-01-24T06:44:51.553Z,1006.97
2019-01-24T06:45:51.479Z,1006.99
2019-01-24T06:46:51.429Z,1006.98
2019-01-24T06:47:51.378Z,1007.02
2019-01-24T06:48:51.325Z,1007.03
2019-01-24T06:49:51.273Z,1007.08
2019-01-24T06:50:51.221Z,1007.09
2019-01-24T06:51:51.169Z,1007.12
2019-01-24T06:52:51.118Z,1007.12
2019-01-24T06:53:51.066Z,1007.13
2019-01-24T06:54:51.013Z,1007.15
2019-01-24T06:55:50.963Z,1007.16
2019-01-24T06:56:50.910Z,1007.21
2019-01-24T06:57:50.860Z,1007.20
2019-01-24T06:58:50.810Z,1007.22
2019-01-24T06:59:50.756Z,1007.25
2019-01-24T07:00:50.703Z,1007.21
2019-01-24T07:01:50.651Z,1007.28
2019-01-24T07:02:50.600Z,1007.25
2019-01-24T07:03:50.548Z,1007.28
2019-01-24T07:04:50.497Z,1007.31
2019-01-24T07:05:55.360Z,1007.24
2019-01-24T07:06:50.394Z,1007.27
2019-01-24T07:07:50.341Z,1007.30
2019-01-24T07:08:50.289Z,1007.30
2019-01-24T07:09:50.239Z,1007.30
2019-01-24T07:10:50.186Z,1007.23
2019-01-24T07:11:50.133Z,1007.30
2019-01-24T07:12:50.082Z,1007.27
2019-01-24T07:13:50.030Z,1007.29
2019-01-24T07:14:49.979Z,1007.29
2019-01-24T07:15:49.926Z,1007.28
2019-01-24T07:16:49.874Z,1007.30
2019-01-24T07:17:49.824Z,1007.29
2019-01-24T07:18:49.772Z,1007.29
2019-01-24T07:19:49.720Z,1007.30
2019-01-24T07:20:49.666Z,1007.30
2019-01-24T07:21:49.667Z,1007.35
2019-01-24T07:22:49.565Z,1007.30
2019-01-24T07:23:49.613Z,1007.25
2019-01-24T07:24:49.461Z,1007.30
2019-01-24T07:25:49.408Z,1007.27
2019-01-24T07:26:49.358Z,1007.30
2019-01-24T07:27:49.307Z,1007.30
2019-01-24T07:28:49.254Z,1007.28
2019-01-24T07:29:49.202Z,1007.29
2019-01-24T07:30:49.150Z,1007.29
2019-01-24T07:31:49.099Z,1007.29
2019-01-24T07:32:49.045Z,1007.35
2019-01-24T07:33:48.995Z,1007.32
2019-01-24T07:34:48.942Z,1007.30
2019-01-24T07:35:48.891Z,1007.34
2019-01-24T07:36:48.839Z,1007.27
2019-01-24T07:37:48.788Z,1007.30
2019-01-24T07:38:48.741Z,1007.32
2019-01-24T07:39:48.685Z,1007.32
2019-01-24T07:40:48.631Z,1007.35
2019-01-24T07:41:48.633Z,1007.35
2019-01-24T07:42:48.578Z,1007.39
2019-01-24T07:43:48.477Z,1007.40
2019-01-24T07:44:48.425Z,1007.42
2019-01-24T07:45:48.376Z,1007.44
2019-01-24T07:46:48.323Z,1007.46
2019-01-24T07:47:48.274Z,1007.48
2019-01-24T07:48:48.218Z,1007.54
2019-01-24T07:49:48.170Z,1007.49
2019-01-24T07:50:48.116Z,1007.58
2019-01-24T07:51:48.063Z,1007.55
2019-01-24T07:52:48.012Z,1007.58
2019-01-24T07:53:47.959Z,1007.63
2019-01-24T07:54:47.911Z,1007.66
2019-01-24T07:55:47.858Z,1007.65
2019-01-24T07:56:47.805Z,1007.67
2019-01-24T07:57:47.756Z,1007.73
2019-01-24T07:58:47.702Z,1007.74
2019-01-24T07:59:47.650Z,1007.72
2019-01-24T08:00:47.598Z,1007.70
2019-01-24T08:01:47.597Z,1007.70
2019-01-24T08:02:47.494Z,1007.67
2019-01-24T08:03:47.444Z,1007.67
2019-01-24T08:04:47.392Z,1007.69
2019-01-24T08:05:47.341Z,1007.66
2019-01-24T08:06:47.288Z,1007.65
2019-01-24T08:07:47.237Z,1007.62
2019-01-24T08:08:47.184Z,1007.66
2019-01-24T08:09:47.134Z,1007.65
2019-01-24T08:10:47.082Z,1007.70
2019-01-24T08:11:47.030Z,1007.67
2019-01-24T08:12:46.980Z,1007.70
2019-01-24T08:13:46.927Z,1007.66
2019-01-24T08:14:46.876Z,1007.72
2019-01-24T08:15:46.824Z,1007.66
2019-01-24T08:16:46.775Z,1007.69
2019-01-24T08:17:46.724Z,1007.68
2019-01-24T08:18:46.669Z,1007.70
2019-01-24T08:19:46.617Z,1007.68
2019-01-24T08:20:46.564Z,1007.67
2019-01-24T08:21:46.514Z,1007.66
2019-01-24T08:22:46.463Z,1007.69
2019-01-24T08:23:46.411Z,1007.67
2019-01-24T08:24:46.359Z,1007.66
2019-01-24T08:25:46.308Z,1007.65
2019-01-24T08:26:46.258Z,1007.68
2019-01-24T08:27:46.208Z,1007.66
2019-01-24T08:28:46.151Z,1007.66
2019-01-24T08:29:46.101Z,1007.73
2019-01-24T08:30:46.049Z,1007.70
2019-01-24T08:31:45.998Z,1007.73
2019-01-24T08:32:45.947Z,1007.72
2019-01-24T08:33:45.893Z,1007.77
2019-01-24T08:34:45.845Z,1007.77
2019-01-24T08:35:45.792Z,1007.70
2019-01-24T08:36:45.741Z,1007.70
2019-01-24T08:37:45.687Z,1007.73
2019-01-24T08:38:45.644Z,1007.69
2019-01-24T08:39:45.586Z,1007.74
2019-01-24T08:40:45.636Z,1007.80
2019-01-24T08:41:45.482Z,1007.77
2019-01-24T08:42:45.432Z,1007.82
2019-01-24T08:43:45.378Z,1007.82
2019-01-24T08:44:45.326Z,1007.81
2019-01-24T08:45:45.276Z,1007.79
2019-01-24T08:46:45.224Z,1007.77
2019-01-24T08:47:45.173Z,1007.75
2019-01-24T08:48:45.119Z,1007.78
2019-01-24T08:49:45.072Z,1007.77
2019-01-24T08:50:45.018Z,1007.81
2019-01-24T08:51:44.965Z,1007.79
2019-01-24T08:52:44.913Z,1007.84
2019-01-24T08:53:44.862Z,1007.80
2019-01-24T08:54:44.812Z,1007.85
2019-01-24T08:55:44.760Z,1007.85
2019-01-24T08:56:44.707Z,1007.83
2019-01-24T08:57:44.656Z,1007.84
2019-01-24T08:58:44.605Z,1007.85
2019-01-24T08:59:44.604Z,1007.87
2019-01-24T09:00:44.502Z,1007.85
2019-01-24T09:01:44.452Z,1007.86
2019-01-24T09:02:44.400Z,1007.91
2019-01-24T09:03:44.347Z,1007.91
2019-01-24T09:04:44.295Z,1007.91
2019-01-24T09:05:44.245Z,1007.88
2019-01-24T09:06:44.193Z,1007.88
2019-01-24T09:07:44.141Z,1007.81
2019-01-24T09:08:44.089Z,1007.82
2019-01-24T09:09:44.037Z,1007.86
2019-01-24T09:10:43.986Z,1007.82
2019-01-24T09:11:43.935Z,1007.87
2019-01-24T09:12:43.893Z,1007.87
2019-01-24T09:13:43.830Z,1007.91
2019-01-24T09:14:43.778Z,1007.90
2019-01-24T09:15:43.731Z,1007.88
2019-01-24T09:16:43.676Z,1007.90
2019-01-24T09:17:43.625Z,1007.88
2019-01-24T09:18:43.575Z,1007.91
2019-01-24T09:19:43.521Z,1007.93
2019-01-24T09:20:43.469Z,1007.96
2019-01-24T09:21:43.419Z,1007.92
2019-01-24T09:22:43.367Z,1007.94
2019-01-24T09:23:43.315Z,1007.93
2019-01-24T09:24:43.264Z,1008.01
2019-01-24T09:25:43.212Z,1007.96
2019-01-24T09:26:43.162Z,1007.96
2019-01-24T09:27:43.108Z,1007.96
2019-01-24T09:28:43.112Z,1007.93
2019-01-24T09:29:43.006Z,1007.91
2019-01-24T09:30:42.961Z,1007.88
2019-01-24T09:31:42.902Z,1007.86
2019-01-24T09:32:42.849Z,1007.86
2019-01-24T09:33:42.799Z,1007.83
2019-01-24T09:34:42.748Z,1007.86
2019-01-24T09:35:42.697Z,1007.92
2019-01-24T09:36:42.643Z,1007.95
2019-01-24T09:37:42.593Z,1007.93
2019-01-24T09:38:42.542Z,1007.98
2019-01-24T09:39:42.490Z,1007.92
2019-01-24T09:40:42.438Z,1007.96
2019-01-24T09:41:42.387Z,1007.93
2019-01-24T09:42:42.335Z,1007.93
2019-01-24T09:43:42.285Z,1007.95
2019-01-24T09:44:42.231Z,1007.99
2019-01-24T09:45:42.181Z,1008.05
2019-01-24T09:46:42.129Z,1007.94
2019-01-24T09:47:42.077Z,1008.01
2019-01-24T09:48:42.026Z,1008.00
2019-01-24T09:49:41.975Z,1008.01
2019-01-24T09:50:41.922Z,1008.10
2019-01-24T09:51:41.874Z,1008.10
2019-01-24T09:52:41.821Z,1008.13
2019-01-24T09:53:41.769Z,1008.11
2019-01-24T09:54:41.717Z,1008.09
2019-01-24T09:55:41.665Z,1008.08
2019-01-24T09:56:41.614Z,1008.02
2019-01-24T09:57:41.562Z,1008.01
2019-01-24T09:58:41.511Z,1008.00
2019-01-24T09:59:41.460Z,1008.01
2019-01-24T10:00:41.406Z,1007.99
2019-01-24T10:01:41.357Z,1007.95
2019-01-24T10:02:41.305Z,1008.00
2019-01-24T10:03:41.253Z,1007.99
2019-01-24T10:04:41.202Z,1007.98
2019-01-24T10:05:41.150Z,1008.05
2019-01-24T10:06:41.099Z,1008.10
2019-01-24T10:07:41.048Z,1008.09
2019-01-24T10:08:40.994Z,1008.13
2019-01-24T10:09:40.944Z,1008.13
2019-01-24T10:10:40.894Z,1008.16
2019-01-24T10:11:40.842Z,1008.11
2019-01-24T10:12:40.789Z,1008.13
2019-01-24T10:13:40.737Z,1008.10
2019-01-24T10:14:40.687Z,1008.07
2019-01-24T10:15:40.636Z,1008.07
2019-01-24T10:16:40.582Z,1008.13
2019-01-24T10:17:40.532Z,1008.09
2019-01-24T10:18:40.481Z,1008.07
2019-01-24T10:19:40.433Z,1008.11
2019-01-24T10:20:40.376Z,1008.08
2019-01-24T10:21:40.326Z,1008.06
2019-01-24T10:22:40.276Z,1008.01
2019-01-24T10:23:40.222Z,1008.04
2019-01-24T10:24:40.171Z,1008.07
2019-01-24T10:25:40.119Z,1008.08
2019-01-24T10:26:40.069Z,1008.09
2019-01-24T10:27:40.018Z,1008.10
2019-01-24T10:28:39.966Z,1008.13
2019-01-24T10:29:39.917Z,1008.15
2019-01-24T10:30:43.061Z,1008.15
2019-01-24T10:31:39.814Z,1008.14
2019-01-24T10:32:39.761Z,1008.16
2019-01-24T10:33:39.715Z,1008.19
2019-01-24T10:34:39.657Z,1008.18
2019-01-24T10:35:39.604Z,1008.21
2019-01-24T10:36:43.138Z,1008.21
2019-01-24T10:37:39.510Z,1008.20
2019-01-24T10:38:39.451Z,1008.24
2019-01-24T10:39:39.401Z,1008.21
2019-01-24T10:40:39.348Z,1008.24
2019-01-24T10:41:39.298Z,1008.23
2019-01-24T10:42:39.245Z,1008.26
2019-01-24T10:43:39.194Z,1008.24
2019-01-24T10:44:39.143Z,1008.28
2019-01-24T10:45:39.090Z,1008.25
2019-01-24T10:46:39.042Z,1008.21
2019-01-24T10:47:39.038Z,1008.24
2019-01-24T10:48:38.935Z,1008.23
2019-01-24T10:49:38.883Z,1008.21
2019-01-24T10:50:38.832Z,1008.25
2019-01-24T10:51:38.782Z,1008.22
2019-01-24T10:52:38.729Z,1008.24
2019-01-24T10:53:38.681Z,1008.22
2019-01-24T10:54:38.627Z,1008.29
2019-01-24T10:55:38.576Z,1008.22
2019-01-24T10:56:38.523Z,1008.26
2019-01-24T10:57:38.473Z,1008.24
2019-01-24T10:58:38.420Z,1008.21
2019-01-24T10:59:38.370Z,1008.21
2019-01-24T11:00:38.318Z,1008.23
2019-01-24T11:01:38.267Z,1008.21
2019-01-24T11:02:38.221Z,1008.20
2019-01-24T11:03:38.165Z,1008.19
2019-01-24T11:04:38.113Z,1008.19
2019-01-24T11:05:38.061Z,1008.26
2019-01-24T11:06:38.008Z,1008.20
2019-01-24T11:07:37.961Z,1008.18
2019-01-24T11:08:37.905Z,1008.14
2019-01-24T11:09:37.856Z,1008.17
2019-01-24T11:10:37.803Z,1008.15
2019-01-24T11:12:37.700Z,1008.18
2019-01-24T11:13:37.649Z,1008.23
2019-01-24T11:14:37.601Z,1008.18
2019-01-24T11:15:37.597Z,1008.27
2019-01-24T11:16:37.496Z,1008.24
2019-01-24T11:17:37.443Z,1008.20
2019-01-24T11:18:37.391Z,1008.24
2019-01-24T11:19:37.341Z,1008.27
2019-01-24T11:20:37.316Z,1008.27
2019-01-24T11:21:37.239Z,1008.28
2019-01-24T11:22:37.185Z,1008.31
2019-01-24T11:23:37.135Z,1008.29
2019-01-24T11:24:37.088Z,1008.28
2019-01-24T11:25:37.031Z,1008.28
2019-01-24T11:26:36.981Z,1008.23
2019-01-24T11:27:36.929Z,1008.22
2019-01-24T11:28:36.875Z,1008.21
2019-01-24T11:29:36.825Z,1008.22
2019-01-24T11:30:36.773Z,1008.21
2019-01-24T11:31:36.723Z,1008.24
2019-01-24T11:32:36.688Z,1008.24
2019-01-24T11:33:36.620Z,1008.26
2019-01-24T11:34:36.569Z,1008.25
2019-01-24T11:35:36.517Z,1008.23
2019-01-24T11:36:36.468Z,1008.21
2019-01-24T11:37:36.413Z,1008.24
2019-01-24T11:38:36.362Z,1008.21
2019-01-24T11:39:36.311Z,1008.22
2019-01-24T11:40:36.259Z,1008.24
2019-01-24T11:41:36.207Z,1008.27
2019-01-24T11:42:36.155Z,1008.31
2019-01-24T11:43:36.104Z,1008.24
2019-01-24T11:44:36.150Z,1008.28
2019-01-24T11:45:36.001Z,1008.26
2019-01-24T11:46:35.950Z,1008.24
2019-01-24T11:47:35.899Z,1008.27
2019-01-24T11:48:35.846Z,1008.20
2019-01-24T11:49:35.795Z,1008.24
2019-01-24T11:50:35.744Z,1008.23
2019-01-24T11:51:35.692Z,1008.19
2019-01-24T11:52:35.640Z,1008.21
2019-01-24T11:53:35.588Z,1008.21
2019-01-24T11:54:35.537Z,1008.21
2019-01-24T11:55:35.488Z,1008.24
2019-01-24T11:56:35.434Z,1008.19
2019-01-24T11:57:35.381Z,1008.16
2019-01-24T11:58:35.330Z,1008.21
2019-01-24T11:59:35.318Z,1008.20
2019-01-24T12:00:35.228Z,1008.19
2019-01-24T12:01:35.176Z,1008.28
2019-01-24T12:02:39.633Z,1008.27
2019-01-24T12:03:35.074Z,1008.24
2019-01-24T12:04:35.026Z,1008.28
2019-01-24T12:05:34.970Z,1008.25